Time;durP1;ratioP1;P1;durP2;ratioP2;P2;SDS_P1;SDS_P2;PMS_P1;PMS_P2;Temp;Humidity;BMP_temperature;BMP_pressure;BME280_temperature;BME280_humidity;BME280_pressure;Samples;Min_cycle;Max_cycle;Signal;HPM_P1;HPM_P2
2022/03/12 00:02:05;;;;;;;;;;;5.00;60.10;;;;;;5087392;28;19924;-76
2022/03/12 00:04:32;;;;;;;;;;;5.00;59.50;;;;;;5083899;28;19931;-76
2022/03/12 00:06:58;;;;;;;;;;;5.10;59.40;;;;;;5083842;28;19924;-81
2022/03/12 00:09:25;;;;;;;;;;;5.00;59.90;;;;;;5084973;28;19971;-76
2022/03/12 00:11:55;;;;;;;;;;;5.10;59.70;;;;;;5090445;28;19932;-76
2022/03/12 00:14:23;;;;;;;;;;;5.10;59.30;;;;;;5089019;28;19928;-76
2022/03/12 00:16:49;;;;;;;;;;;5.00;59.90;;;;;;5087689;28;19986;-76
2022/03/12 00:19:16;;;;;;;;;;;5.00;60.20;;;;;;5078649;28;19971;-76
2022/03/12 00:21:42;;;;;;;;;;;5.00;60.00;;;;;;5087803;28;19924;-76
2022/03/12 00:24:11;;;;;;;;;;;5.00;59.90;;;;;;5084547;28;19925;-76
2022/03/12 00:26:38;;;;;;;;;;;5.00;60.20;;;;;;5089861;28;20488;-75
2022/03/12 00:29:05;;;;;;;;;;;5.00;60.00;;;;;;5087520;28;19924;-75
2022/03/12 00:31:33;;;;;;;;;;;5.00;60.20;;;;;;5086965;28;19924;-76
2022/03/12 00:34:00;;;;;;;;;;;5.00;60.90;;;;;;5077978;28;19925;-76
2022/03/12 00:36:26;;;;;;;;;;;4.90;60.30;;;;;;5075614;28;19932;-76
2022/03/12 00:38:53;;;;;;;;;;;4.90;60.70;;;;;;5081596;28;20367;-76
2022/03/12 00:41:19;;;;;;;;;;;4.90;60.10;;;;;;5076743;28;19994;-77
2022/03/12 00:43:46;;;;;;;;;;;5.00;60.00;;;;;;5075875;28;19929;-76
2022/03/12 00:46:12;;;;;;;;;;;4.90;60.60;;;;;;5086750;28;20010;-75
2022/03/12 00:48:39;;;;;;;;;;;4.90;60.40;;;;;;5087939;28;21148;-75
2022/03/12 00:51:06;;;;;;;;;;;4.90;60.40;;;;;;5085478;28;19924;-76
2022/03/12 00:53:33;;;;;;;;;;;4.90;60.60;;;;;;5088149;28;19925;-76
2022/03/12 00:55:59;;;;;;;;;;;4.90;60.50;;;;;;5089636;28;19928;-75
2022/03/12 00:58:26;;;;;;;;;;;4.90;60.40;;;;;;5086916;28;19924;-75
2022/03/12 01:00:52;;;;;;;;;;;4.90;60.60;;;;;;5090618;28;19931;-75
2022/03/12 01:03:19;;;;;;;;;;;4.90;60.80;;;;;;5090008;28;19924;-76
2022/03/12 01:05:45;;;;;;;;;;;4.80;60.30;;;;;;5090561;28;19924;-76
2022/03/12 01:08:12;;;;;;;;;;;4.80;61.40;;;;;;5083866;28;19924;-76
2022/03/12 01:10:38;;;;;;;;;;;4.80;61.00;;;;;;5085654;28;19928;-75
2022/03/12 01:13:05;;;;;;;;;;;4.70;60.70;;;;;;5088052;28;19925;-81
2022/03/12 01:15:32;;;;;;;;;;;4.80;61.30;;;;;;5083851;28;19924;-76
2022/03/12 01:17:58;;;;;;;;;;;4.70;61.10;;;;;;5091225;28;19930;-75
2022/03/12 01:20:25;;;;;;;;;;;4.70;61.10;;;;;;5081301;28;19940;-74
2022/03/12 01:22:52;;;;;;;;;;;4.80;60.60;;;;;;5089676;28;19931;-76
2022/03/12 01:25:18;;;;;;;;;;;4.80;60.80;;;;;;5081746;28;19928;-75
2022/03/12 01:27:45;;;;;;;;;;;4.80;60.60;;;;;;5099007;28;19924;-75
2022/03/12 01:30:11;;;;;;;;;;;4.80;60.40;;;;;;5089811;28;19939;-76
2022/03/12 01:32:38;;;;;;;;;;;4.70;60.90;;;;;;5082391;28;19935;-76
2022/03/12 01:35:04;;;;;;;;;;;4.70;60.50;;;;;;5089602;28;19928;-80
2022/03/12 01:37:31;;;;;;;;;;;4.70;60.50;;;;;;5089059;28;19929;-76
2022/03/12 01:39:58;;;;;;;;;;;4.70;60.40;;;;;;5082197;28;19925;-75
2022/03/12 01:42:27;;;;;;;;;;;4.70;60.90;;;;;;5076749;28;19938;-76
2022/03/12 01:44:53;;;;;;;;;;;4.60;60.40;;;;;;5081237;28;19924;-75
2022/03/12 01:47:21;;;;;;;;;;;4.50;62.00;;;;;;5081249;28;19924;-76
2022/03/12 01:49:47;;;;;;;;;;;4.60;61.50;;;;;;5087403;28;20423;-76
2022/03/12 01:52:14;;;;;;;;;;;4.60;61.60;;;;;;5098861;28;19924;-76
2022/03/12 01:54:41;;;;;;;;;;;4.60;61.10;;;;;;5089202;28;19925;-76
2022/03/12 01:57:09;;;;;;;;;;;4.60;60.60;;;;;;5076492;28;19925;-80
2022/03/12 01:59:35;;;;;;;;;;;4.70;61.40;;;;;;5079678;28;20354;-76
2022/03/12 02:02:03;;;;;;;;;;;4.60;60.90;;;;;;5086096;28;20272;-76
2022/03/12 02:04:29;;;;;;;;;;;4.60;61.00;;;;;;5077047;28;19928;-76
2022/03/12 02:06:58;;;;;;;;;;;4.60;61.10;;;;;;5084567;28;19935;-74
2022/03/12 02:09:24;;;;;;;;;;;4.60;61.10;;;;;;5093130;28;19932;-76
2022/03/12 02:11:51;;;;;;;;;;;4.50;61.30;;;;;;5083948;28;20292;-78
2022/03/12 02:14:18;;;;;;;;;;;4.60;61.50;;;;;;5090375;28;19931;-74
2022/03/12 02:16:44;;;;;;;;;;;4.60;61.70;;;;;;5076669;28;19925;-76
2022/03/12 02:19:11;;;;;;;;;;;4.60;61.60;;;;;;5076622;28;19935;-78
2022/03/12 02:21:38;;;;;;;;;;;4.60;61.70;;;;;;5091508;28;19924;-76
2022/03/12 02:24:05;;;;;;;;;;;4.50;61.90;;;;;;5083534;28;19925;-75
2022/03/12 02:26:31;;;;;;;;;;;4.50;61.20;;;;;;5089291;28;19939;-76
2022/03/12 02:28:58;;;;;;;;;;;4.50;62.00;;;;;;5078439;28;20025;-76
2022/03/12 02:31:26;;;;;;;;;;;4.50;61.90;;;;;;5074396;28;19925;-74
2022/03/12 02:33:52;;;;;;;;;;;4.50;62.40;;;;;;5076542;28;19968;-75
2022/03/12 02:36:26;;;;;;;;;;;4.40;61.80;;;;;;5087044;28;19931;-76
2022/03/12 02:38:53;;;;;;;;;;;4.50;61.60;;;;;;5092813;28;20007;-76
2022/03/12 02:41:19;;;;;;;;;;;4.40;62.10;;;;;;5086127;28;20371;-76
2022/03/12 02:43:46;;;;;;;;;;;4.40;62.40;;;;;;5082422;28;19934;-76
2022/03/12 02:46:13;;;;;;;;;;;4.40;62.70;;;;;;5093077;28;19958;-81
2022/03/12 02:48:40;;;;;;;;;;;4.30;62.10;;;;;;5079729;28;19931;-75
2022/03/12 02:51:07;;;;;;;;;;;4.40;62.50;;;;;;5087974;28;20359;-77
2022/03/12 02:53:34;;;;;;;;;;;4.40;62.20;;;;;;5090942;28;19925;-76
2022/03/12 02:56:01;;;;;;;;;;;4.30;61.40;;;;;;5084676;28;19971;-75
2022/03/12 02:58:27;;;;;;;;;;;4.40;61.80;;;;;;5087380;28;20418;-75
2022/03/12 03:00:54;;;;;;;;;;;4.40;61.40;;;;;;5089426;28;19967;-76
2022/03/12 03:03:21;;;;;;;;;;;4.30;61.80;;;;;;5083230;28;19978;-78
2022/03/12 03:05:48;;;;;;;;;;;4.40;61.80;;;;;;5087903;28;19924;-76
2022/03/12 03:08:16;;;;;;;;;;;4.30;62.00;;;;;;5091621;28;19924;-78
2022/03/12 03:10:43;;;;;;;;;;;4.30;61.00;;;;;;5084991;28;19929;-76
2022/03/12 03:13:11;;;;;;;;;;;4.30;61.70;;;;;;5085810;28;19925;-76
2022/03/12 03:15:39;;;;;;;;;;;4.30;62.20;;;;;;5078083;28;19929;-76
2022/03/12 03:18:12;;;;;;;;;;;4.30;61.90;;;;;;5091388;28;20419;-80
2022/03/12 03:20:38;;;;;;;;;;;4.30;61.90;;;;;;5087154;28;20428;-76
2022/03/12 03:23:05;;;;;;;;;;;4.40;61.80;;;;;;5090360;28;19923;-75
2022/03/12 03:25:31;;;;;;;;;;;4.30;61.40;;;;;;5082340;28;19924;-76
2022/03/12 03:27:58;;;;;;;;;;;4.30;61.80;;;;;;5092388;28;20014;-75
2022/03/12 03:30:24;;;;;;;;;;;4.20;61.40;;;;;;5087121;28;19931;-75
2022/03/12 03:32:51;;;;;;;;;;;4.20;61.10;;;;;;5083490;28;20379;-75
2022/03/12 03:35:17;;;;;;;;;;;4.30;61.40;;;;;;5091713;28;20022;-76
2022/03/12 03:37:44;;;;;;;;;;;4.30;61.80;;;;;;5079108;28;19924;-74
2022/03/12 03:40:11;;;;;;;;;;;4.30;61.10;;;;;;5088299;28;20263;-76
2022/03/12 03:42:37;;;;;;;;;;;4.20;61.60;;;;;;5090394;28;20390;-76
2022/03/12 03:45:04;;;;;;;;;;;4.20;62.50;;;;;;5085879;28;19977;-75
2022/03/12 03:47:30;;;;;;;;;;;4.20;62.00;;;;;;5089240;28;19931;-76
2022/03/12 03:49:57;;;;;;;;;;;4.20;62.30;;;;;;5093988;28;19925;-76
2022/03/12 03:52:23;;;;;;;;;;;4.20;62.40;;;;;;5082416;28;19931;-76
2022/03/12 03:54:50;;;;;;;;;;;4.10;62.70;;;;;;5087109;28;20041;-76
2022/03/12 03:57:19;;;;;;;;;;;4.10;63.40;;;;;;5081426;28;19924;-82
2022/03/12 03:59:45;;;;;;;;;;;4.10;62.60;;;;;;5089641;28;19924;-77
2022/03/12 04:02:12;;;;;;;;;;;4.10;63.30;;;;;;5085080;28;19924;-76
2022/03/12 04:04:38;;;;;;;;;;;4.10;62.50;;;;;;5078660;28;19924;-75
2022/03/12 04:07:05;;;;;;;;;;;4.10;62.80;;;;;;5084524;28;19924;-76
2022/03/12 04:09:31;;;;;;;;;;;4.10;62.70;;;;;;5091097;28;19946;-76
2022/03/12 04:11:58;;;;;;;;;;;4.10;62.40;;;;;;5091767;28;19924;-78
2022/03/12 04:14:25;;;;;;;;;;;4.10;62.80;;;;;;5087331;28;19924;-75
2022/03/12 04:16:52;;;;;;;;;;;4.10;62.40;;;;;;5087432;28;20020;-75
2022/03/12 04:19:19;;;;;;;;;;;4.10;62.70;;;;;;5074628;28;19925;-82
2022/03/12 04:21:45;;;;;;;;;;;4.10;63.40;;;;;;5080162;28;19929;-75
2022/03/12 04:24:13;;;;;;;;;;;4.00;63.10;;;;;;5076236;28;19934;-76
2022/03/12 04:26:40;;;;;;;;;;;4.00;63.80;;;;;;5082213;28;19931;-79
2022/03/12 04:29:08;;;;;;;;;;;4.00;63.60;;;;;;5090128;28;20006;-76
2022/03/12 04:31:36;;;;;;;;;;;4.00;63.20;;;;;;5080274;28;20287;-76
2022/03/12 04:34:03;;;;;;;;;;;4.00;62.70;;;;;;5088277;28;20275;-76
2022/03/12 04:36:30;;;;;;;;;;;4.00;62.60;;;;;;5071151;28;19929;-76
2022/03/12 04:38:56;;;;;;;;;;;4.10;62.50;;;;;;5087749;28;19924;-76
2022/03/12 04:41:23;;;;;;;;;;;4.10;63.10;;;;;;5089269;28;19931;-79
2022/03/12 04:43:51;;;;;;;;;;;4.10;62.30;;;;;;5082331;28;19931;-74
2022/03/12 04:46:17;;;;;;;;;;;4.10;62.50;;;;;;5082278;28;20032;-79
2022/03/12 04:48:44;;;;;;;;;;;4.20;61.80;;;;;;5077781;28;19933;-75
2022/03/12 04:51:11;;;;;;;;;;;4.20;61.90;;;;;;5084800;28;19924;-75
2022/03/12 04:53:38;;;;;;;;;;;4.20;61.90;;;;;;5081683;28;19947;-76
2022/03/12 04:56:05;;;;;;;;;;;4.20;62.00;;;;;;5081493;28;19924;-76
2022/03/12 04:58:31;;;;;;;;;;;4.20;62.00;;;;;;5090487;28;20291;-77
2022/03/12 05:00:58;;;;;;;;;;;4.10;61.40;;;;;;5082691;28;19924;-76
2022/03/12 05:03:25;;;;;;;;;;;4.10;61.70;;;;;;5088404;28;19928;-81
2022/03/12 05:05:51;;;;;;;;;;;4.10;61.50;;;;;;5092269;28;20012;-74
2022/03/12 05:08:18;;;;;;;;;;;4.00;61.70;;;;;;5081007;28;19960;-75
2022/03/12 05:10:44;;;;;;;;;;;4.00;61.00;;;;;;5084042;28;19935;-75
2022/03/12 05:13:12;;;;;;;;;;;4.00;62.20;;;;;;5088760;28;19928;-75
2022/03/12 05:15:39;;;;;;;;;;;4.00;61.50;;;;;;5090729;28;19928;-75
2022/03/12 05:18:07;;;;;;;;;;;4.00;61.80;;;;;;5082066;28;20351;-76
2022/03/12 05:20:34;;;;;;;;;;;3.90;61.20;;;;;;5084607;28;20416;-76
2022/03/12 05:23:00;;;;;;;;;;;3.80;62.00;;;;;;5081267;28;20345;-76
2022/03/12 05:25:27;;;;;;;;;;;3.80;63.00;;;;;;5074008;28;19928;-80
2022/03/12 05:27:54;;;;;;;;;;;3.70;63.30;;;;;;5089465;28;20397;-76
2022/03/12 05:30:20;;;;;;;;;;;3.80;62.60;;;;;;5078424;28;20390;-76
2022/03/12 05:32:47;;;;;;;;;;;3.70;62.60;;;;;;5076635;28;19935;-76
2022/03/12 05:35:15;;;;;;;;;;;3.60;62.70;;;;;;5088549;28;19971;-74
2022/03/12 05:37:44;;;;;;;;;;;3.60;63.30;;;;;;5094693;28;19931;-78
2022/03/12 05:40:11;;;;;;;;;;;3.60;62.90;;;;;;5081374;28;19925;-75
2022/03/12 05:42:37;;;;;;;;;;;3.60;62.90;;;;;;5086893;28;19930;-74
2022/03/12 05:45:05;;;;;;;;;;;3.60;62.70;;;;;;5081956;28;19935;-74
2022/03/12 05:47:36;;;;;;;;;;;3.60;63.20;;;;;;5084705;28;19928;-76
2022/03/12 05:50:02;;;;;;;;;;;3.50;63.00;;;;;;5086634;28;20325;-76
2022/03/12 05:52:29;;;;;;;;;;;3.50;63.30;;;;;;5091317;28;20375;-82
2022/03/12 05:54:55;;;;;;;;;;;3.50;63.40;;;;;;5085241;28;20402;-75
2022/03/12 05:57:22;;;;;;;;;;;3.50;63.40;;;;;;5093902;28;19931;-76
2022/03/12 05:59:49;;;;;;;;;;;3.40;63.80;;;;;;5087733;28;20006;-76
2022/03/12 06:02:16;;;;;;;;;;;3.40;63.40;;;;;;5092941;28;19927;-76
2022/03/12 06:04:43;;;;;;;;;;;3.40;63.70;;;;;;5089325;28;19924;-76
2022/03/12 06:07:09;;;;;;;;;;;3.40;63.50;;;;;;5080525;28;19924;-75
2022/03/12 06:09:36;;;;;;;;;;;3.40;62.90;;;;;;5081923;28;19968;-76
2022/03/12 06:12:02;;;;;;;;;;;3.40;62.40;;;;;;5078866;28;20367;-75
2022/03/12 06:14:30;;;;;;;;;;;3.40;61.90;;;;;;5078943;28;19932;-81
2022/03/12 06:16:57;;;;;;;;;;;3.30;62.30;;;;;;5077396;28;19931;-76
2022/03/12 06:19:23;;;;;;;;;;;3.30;62.80;;;;;;5077279;28;19925;-77
2022/03/12 06:21:50;;;;;;;;;;;3.40;62.50;;;;;;5079117;28;20540;-76
2022/03/12 06:24:16;;;;;;;;;;;3.40;62.80;;;;;;5077090;28;19924;-76
2022/03/12 06:26:43;;;;;;;;;;;3.40;62.90;;;;;;5075459;28;20034;-77
2022/03/12 06:29:13;;;;;;;;;;;3.40;62.30;;;;;;5077905;28;20283;-75
2022/03/12 06:31:40;;;;;;;;;;;3.40;62.20;;;;;;5071246;28;20288;-77
2022/03/12 06:34:06;;;;;;;;;;;3.50;62.20;;;;;;5074526;28;19933;-76
2022/03/12 06:36:33;;;;;;;;;;;3.50;62.00;;;;;;5074669;28;20023;-82
2022/03/12 06:39:00;;;;;;;;;;;3.60;62.50;;;;;;5075327;28;19935;-77
2022/03/12 06:41:26;;;;;;;;;;;3.70;62.00;;;;;;5073230;28;19936;-77
2022/03/12 06:43:55;;;;;;;;;;;3.70;61.80;;;;;;5073577;28;19920;-77
2022/03/12 06:46:22;;;;;;;;;;;3.70;62.60;;;;;;5073613;28;20007;-77
2022/03/12 06:48:48;;;;;;;;;;;3.70;63.10;;;;;;5077371;28;20007;-77
2022/03/12 06:51:15;;;;;;;;;;;3.70;63.40;;;;;;5074956;28;19931;-76
2022/03/12 06:53:41;;;;;;;;;;;3.80;62.60;;;;;;5078734;28;19924;-76
2022/03/12 06:56:08;;;;;;;;;;;3.80;62.50;;;;;;5074771;28;19924;-76
2022/03/12 06:58:35;;;;;;;;;;;3.80;62.30;;;;;;5078586;28;19924;-81
2022/03/12 07:01:02;;;;;;;;;;;3.80;62.60;;;;;;5075670;28;19968;-77
2022/03/12 07:03:29;;;;;;;;;;;3.90;62.80;;;;;;5077211;28;19931;-77
2022/03/12 07:05:55;;;;;;;;;;;4.00;62.20;;;;;;5076956;28;19929;-75
2022/03/12 07:08:22;;;;;;;;;;;4.00;62.10;;;;;;5074851;28;19924;-75
2022/03/12 07:10:49;;;;;;;;;;;4.00;62.10;;;;;;5075156;28;19925;-76
2022/03/12 07:13:16;;;;;;;;;;;4.00;62.40;;;;;;5075020;28;20054;-76
2022/03/12 07:15:42;;;;;;;;;;;4.00;62.60;;;;;;5076051;28;19931;-75
2022/03/12 07:18:09;;;;;;;;;;;4.00;62.30;;;;;;5075827;28;19931;-76
2022/03/12 07:20:36;;;;;;;;;;;4.00;63.20;;;;;;5074497;28;19939;-81
2022/03/12 07:23:02;;;;;;;;;;;4.00;64.10;;;;;;5077222;28;19924;-75
2022/03/12 07:25:29;;;;;;;;;;;4.00;63.40;;;;;;5075960;28;20423;-75
2022/03/12 07:27:55;;;;;;;;;;;4.10;62.90;;;;;;5077647;28;19925;-77
2022/03/12 07:30:22;;;;;;;;;;;4.10;65.00;;;;;;5083618;28;19985;-76
2022/03/12 07:32:48;;;;;;;;;;;4.10;64.20;;;;;;5077881;28;19924;-75
2022/03/12 07:35:15;;;;;;;;;;;4.10;63.70;;;;;;5075667;28;20318;-75
2022/03/12 07:37:42;;;;;;;;;;;4.20;63.80;;;;;;5072467;28;20287;-76
2022/03/12 07:40:09;;;;;;;;;;;4.20;63.60;;;;;;5071329;28;19972;-76
2022/03/12 07:42:35;;;;;;;;;;;4.20;63.50;;;;;;5091025;28;20019;-76
2022/03/12 07:45:02;;;;;;;;;;;4.30;63.20;;;;;;5074267;28;19930;-75
2022/03/12 07:47:28;;;;;;;;;;;4.40;64.00;;;;;;5074702;28;19924;-76
2022/03/12 07:49:55;;;;;;;;;;;4.50;63.10;;;;;;5071704;28;19935;-76
2022/03/12 07:52:21;;;;;;;;;;;4.50;63.90;;;;;;5072187;28;19925;-76
2022/03/12 07:54:48;;;;;;;;;;;4.50;64.30;;;;;;5073481;28;19928;-77
2022/03/12 07:57:15;;;;;;;;;;;4.70;64.00;;;;;;5074199;28;19932;-76
2022/03/12 07:59:44;;;;;;;;;;;4.70;65.10;;;;;;5071400;28;19950;-76
2022/03/12 08:02:11;;;;;;;;;;;4.80;65.10;;;;;;5078354;28;19924;-76
2022/03/12 08:04:37;;;;;;;;;;;4.90;64.20;;;;;;5072384;28;19998;-76
2022/03/12 08:07:04;;;;;;;;;;;5.00;63.60;;;;;;5074129;28;19924;-77
2022/03/12 08:09:30;;;;;;;;;;;5.10;64.20;;;;;;5073408;28;19925;-76
2022/03/12 08:11:58;;;;;;;;;;;5.20;64.10;;;;;;5073786;28;19943;-78
2022/03/12 08:14:24;;;;;;;;;;;5.30;64.10;;;;;;5074620;28;20447;-79
2022/03/12 08:16:52;;;;;;;;;;;5.50;64.90;;;;;;5073534;28;19931;-76
2022/03/12 08:19:18;;;;;;;;;;;5.60;64.00;;;;;;5073664;28;19977;-79
2022/03/12 08:21:45;;;;;;;;;;;5.90;64.30;;;;;;5073476;28;20294;-77
2022/03/12 08:24:15;;;;;;;;;;;6.10;63.40;;;;;;5072542;28;19925;-76
2022/03/12 08:26:42;;;;;;;;;;;6.50;62.90;;;;;;5071037;28;20019;-81
2022/03/12 08:29:09;;;;;;;;;;;6.90;61.20;;;;;;5073201;28;20015;-77
2022/03/12 08:31:36;;;;;;;;;;;7.10;59.90;;;;;;5072655;28;19924;-77
2022/03/12 08:34:03;;;;;;;;;;;7.40;59.70;;;;;;5073424;28;20007;-76
2022/03/12 08:36:29;;;;;;;;;;;7.50;59.50;;;;;;5074163;28;20390;-77
2022/03/12 08:38:56;;;;;;;;;;;7.70;60.50;;;;;;5072045;28;19928;-78
2022/03/12 08:41:22;;;;;;;;;;;7.80;58.80;;;;;;5074733;28;20402;-76
2022/03/12 08:43:49;;;;;;;;;;;7.90;58.70;;;;;;5071446;28;19925;-78
2022/03/12 08:46:15;;;;;;;;;;;8.00;59.40;;;;;;5073535;28;20003;-78
2022/03/12 08:48:42;;;;;;;;;;;8.00;58.60;;;;;;5070985;28;19935;-78
2022/03/12 08:51:09;;;;;;;;;;;8.10;59.60;;;;;;5073681;28;19928;-77
2022/03/12 08:53:35;;;;;;;;;;;8.20;59.00;;;;;;5072690;28;19933;-79
2022/03/12 08:56:02;;;;;;;;;;;8.10;58.80;;;;;;5074187;28;19928;-78
2022/03/12 08:58:29;;;;;;;;;;;8.10;59.70;;;;;;5094784;28;19928;-80
2022/03/12 09:00:56;;;;;;;;;;;8.20;60.60;;;;;;5083150;28;19928;-78
2022/03/12 09:03:22;;;;;;;;;;;8.30;61.20;;;;;;5082203;28;19929;-80
2022/03/12 09:05:49;;;;;;;;;;;8.30;60.60;;;;;;5080803;28;19935;-78
2022/03/12 09:08:16;;;;;;;;;;;8.40;61.10;;;;;;5077808;28;20355;-79
2022/03/12 09:10:42;;;;;;;;;;;8.50;61.40;;;;;;5079383;28;19928;-78
2022/03/12 09:13:11;;;;;;;;;;;8.60;61.90;;;;;;5085716;28;19928;-79
2022/03/12 09:15:37;;;;;;;;;;;8.80;62.10;;;;;;5089301;28;19987;-79
2022/03/12 09:18:04;;;;;;;;;;;9.10;61.00;;;;;;5089331;28;19928;-78
2022/03/12 09:20:33;;;;;;;;;;;9.20;60.20;;;;;;5088710;28;19928;-78
2022/03/12 09:22:59;;;;;;;;;;;9.30;58.60;;;;;;5072969;28;19928;-78
2022/03/12 09:25:26;;;;;;;;;;;9.50;58.30;;;;;;5076548;28;20298;-79
2022/03/12 09:27:53;;;;;;;;;;;9.60;58.00;;;;;;5088292;28;20411;-78
2022/03/12 09:30:20;;;;;;;;;;;9.70;59.60;;;;;;5078226;28;19971;-78
2022/03/12 09:32:46;;;;;;;;;;;9.70;58.60;;;;;;5076977;28;19935;-78
2022/03/12 09:35:14;;;;;;;;;;;9.70;59.50;;;;;;5075504;28;19928;-79
2022/03/12 09:37:40;;;;;;;;;;;9.80;59.20;;;;;;5072703;28;20342;-80
2022/03/12 09:40:07;;;;;;;;;;;9.90;59.80;;;;;;5075392;28;20387;-79
2022/03/12 09:42:34;;;;;;;;;;;10.00;60.40;;;;;;5083814;28;19928;-78
2022/03/12 09:45:02;;;;;;;;;;;10.10;59.70;;;;;;5082700;28;19935;-78
2022/03/12 09:47:28;;;;;;;;;;;10.20;59.60;;;;;;5080806;28;19967;-79
2022/03/12 09:49:55;;;;;;;;;;;10.30;60.10;;;;;;5080055;28;19927;-78
2022/03/12 09:52:21;;;;;;;;;;;10.40;60.90;;;;;;5098589;28;20384;-80
2022/03/12 09:54:49;;;;;;;;;;;10.50;60.90;;;;;;5072930;28;19924;-77
2022/03/12 09:57:15;;;;;;;;;;;10.60;61.40;;;;;;5081891;28;19972;-78
2022/03/12 09:59:42;;;;;;;;;;;10.80;61.20;;;;;;5077447;28;19929;-78
2022/03/12 10:02:09;;;;;;;;;;;10.90;63.30;;;;;;5087260;28;19935;-78
2022/03/12 10:04:35;;;;;;;;;;;11.00;62.30;;;;;;5084136;28;19925;-80
2022/03/12 10:07:02;;;;;;;;;;;11.10;62.80;;;;;;5085881;28;20018;-80
2022/03/12 10:09:29;;;;;;;;;;;11.20;62.90;;;;;;5083562;28;19932;-79
2022/03/12 10:11:55;;;;;;;;;;;11.40;63.60;;;;;;5077231;28;19927;-79
2022/03/12 10:14:24;;;;;;;;;;;11.50;63.90;;;;;;5076716;28;19931;-78
2022/03/12 10:16:51;;;;;;;;;;;11.50;64.00;;;;;;5098621;28;19935;-80
2022/03/12 10:19:19;;;;;;;;;;;11.60;64.30;;;;;;5071482;28;20296;-79
2022/03/12 10:21:45;;;;;;;;;;;11.70;66.50;;;;;;5076044;28;19977;-83
2022/03/12 10:24:12;;;;;;;;;;;11.80;67.00;;;;;;5076839;28;19933;-81
2022/03/12 10:26:39;;;;;;;;;;;11.90;67.10;;;;;;5080332;28;19929;-78
2022/03/12 10:29:05;;;;;;;;;;;12.00;68.30;;;;;;5077248;28;19928;-80
2022/03/12 10:31:32;;;;;;;;;;;12.20;67.60;;;;;;5075524;28;20017;-81
2022/03/12 10:33:59;;;;;;;;;;;12.30;67.90;;;;;;5079010;28;19996;-75
2022/03/12 10:36:26;;;;;;;;;;;12.40;68.00;;;;;;5078451;28;19942;-79
2022/03/12 10:38:52;;;;;;;;;;;12.40;69.40;;;;;;5074742;28;19932;-80
2022/03/12 10:41:19;;;;;;;;;;;12.30;70.00;;;;;;5077560;28;19928;-79
2022/03/12 10:43:45;;;;;;;;;;;12.40;71.40;;;;;;5074228;28;19924;-78
2022/03/12 10:46:12;;;;;;;;;;;12.50;70.80;;;;;;5073391;28;21210;-79
2022/03/12 10:48:38;;;;;;;;;;;12.50;72.30;;;;;;5076809;28;19925;-78
2022/03/12 10:51:05;;;;;;;;;;;12.50;72.50;;;;;;5071771;28;20314;-79
2022/03/12 10:53:32;;;;;;;;;;;12.50;72.40;;;;;;5075983;28;19970;-78
2022/03/12 10:55:58;;;;;;;;;;;12.50;74.60;;;;;;5074673;28;19928;-83
2022/03/12 10:58:25;;;;;;;;;;;12.50;75.00;;;;;;5078137;28;19932;-78
2022/03/12 11:00:51;;;;;;;;;;;12.60;75.70;;;;;;5074276;28;19928;-78
2022/03/12 11:03:18;;;;;;;;;;;12.80;75.90;;;;;;5077683;28;20146;-78
2022/03/12 11:05:47;;;;;;;;;;;12.90;75.30;;;;;;5078093;28;19975;-81
2022/03/12 11:08:15;;;;;;;;;;;13.00;76.90;;;;;;5076287;28;19932;-81
2022/03/12 11:10:42;;;;;;;;;;;13.10;75.90;;;;;;5078657;28;20007;-77
2022/03/12 11:13:08;;;;;;;;;;;13.20;77.50;;;;;;5075308;28;19925;-80
2022/03/12 11:15:35;;;;;;;;;;;13.30;75.70;;;;;;5087436;28;20368;-81
2022/03/12 11:18:02;;;;;;;;;;;13.40;76.20;;;;;;5072473;28;19930;-78
2022/03/12 11:20:28;;;;;;;;;;;13.50;76.40;;;;;;5087629;28;20267;-79
2022/03/12 11:22:55;;;;;;;;;;;13.60;76.70;;;;;;5070975;28;19925;-79
2022/03/12 11:25:22;;;;;;;;;;;13.40;77.00;;;;;;5077388;28;19928;-78
2022/03/12 11:27:50;;;;;;;;;;;13.50;78.10;;;;;;5077563;28;20414;-79
2022/03/12 11:30:17;;;;;;;;;;;13.50;77.70;;;;;;5072444;28;20260;-78
2022/03/12 11:32:44;;;;;;;;;;;13.60;76.80;;;;;;5079533;28;19931;-76
2022/03/12 11:35:11;;;;;;;;;;;13.60;77.20;;;;;;5077622;28;19998;-77
2022/03/12 11:37:38;;;;;;;;;;;13.50;76.20;;;;;;5074641;28;19981;-77
2022/03/12 11:40:04;;;;;;;;;;;13.50;77.30;;;;;;5072977;28;19924;-79
2022/03/12 11:42:31;;;;;;;;;;;13.50;78.60;;;;;;5075326;28;19924;-77
2022/03/12 11:44:57;;;;;;;;;;;13.70;77.20;;;;;;5077579;28;19931;-78
2022/03/12 11:47:24;;;;;;;;;;;13.60;77.50;;;;;;5073592;28;19932;-79
2022/03/12 11:49:50;;;;;;;;;;;13.60;79.10;;;;;;5076648;28;19928;-78
2022/03/12 11:52:17;;;;;;;;;;;13.60;77.00;;;;;;5088675;28;19932;-77
2022/03/12 11:54:44;;;;;;;;;;;13.60;77.90;;;;;;5073843;28;19924;-79
2022/03/12 11:57:10;;;;;;;;;;;13.70;79.00;;;;;;5072530;28;19932;-80
2022/03/12 11:59:38;;;;;;;;;;;13.80;77.60;;;;;;5073674;28;19951;-78
2022/03/12 12:02:05;;;;;;;;;;;13.90;77.60;;;;;;5071649;28;19928;-79
2022/03/12 12:04:32;;;;;;;;;;;13.80;77.60;;;;;;5073991;28;19928;-79
2022/03/12 12:06:59;;;;;;;;;;;13.90;76.90;;;;;;5073262;28;19925;-78
2022/03/12 12:09:26;;;;;;;;;;;14.00;77.90;;;;;;5073470;28;20334;-78
2022/03/12 12:11:54;;;;;;;;;;;14.00;78.80;;;;;;5080383;28;19928;-75
2022/03/12 12:14:21;;;;;;;;;;;14.10;78.30;;;;;;5090605;28;19970;-76
2022/03/12 12:16:47;;;;;;;;;;;14.30;77.80;;;;;;5087324;28;19932;-78
2022/03/12 12:19:14;;;;;;;;;;;14.30;76.80;;;;;;5076999;28;19928;-79
2022/03/12 12:21:41;;;;;;;;;;;14.30;77.20;;;;;;5101363;28;19935;-79
2022/03/12 12:24:07;;;;;;;;;;;14.40;77.00;;;;;;5087174;28;19924;-80
2022/03/12 12:26:34;;;;;;;;;;;14.40;78.20;;;;;;5084193;28;20256;-79
2022/03/12 12:29:00;;;;;;;;;;;14.50;76.70;;;;;;5075064;28;20010;-79
2022/03/12 12:31:27;;;;;;;;;;;14.50;76.60;;;;;;5088565;28;19932;-79
2022/03/12 12:33:54;;;;;;;;;;;14.40;77.60;;;;;;5090235;28;20359;-79
2022/03/12 12:36:22;;;;;;;;;;;14.50;78.30;;;;;;5084347;28;19928;-79
2022/03/12 12:38:48;;;;;;;;;;;14.30;78.50;;;;;;5084718;28;19931;-79
2022/03/12 12:41:16;;;;;;;;;;;14.30;78.50;;;;;;5089849;28;19925;-77
2022/03/12 12:43:43;;;;;;;;;;;14.30;78.20;;;;;;5086294;28;19924;-79
2022/03/12 12:46:10;;;;;;;;;;;14.40;79.00;;;;;;5087832;28;19924;-82
2022/03/12 12:48:38;;;;;;;;;;;14.30;79.50;;;;;;5088776;28;20337;-79
2022/03/12 12:51:05;;;;;;;;;;;14.30;79.40;;;;;;5086822;28;19989;-77
2022/03/12 12:53:32;;;;;;;;;;;14.20;79.60;;;;;;5081176;28;20307;-77
2022/03/12 12:55:58;;;;;;;;;;;14.20;80.40;;;;;;5102651;28;20378;-79
2022/03/12 12:58:25;;;;;;;;;;;14.30;80.10;;;;;;5084425;28;19924;-79
2022/03/12 13:00:52;;;;;;;;;;;14.40;80.20;;;;;;5080664;28;20421;-78
2022/03/12 13:03:19;;;;;;;;;;;14.50;81.20;;;;;;5080790;28;19924;-79
2022/03/12 13:05:45;;;;;;;;;;;14.60;80.70;;;;;;5085919;28;19924;-79
2022/03/12 13:08:12;;;;;;;;;;;14.50;79.60;;;;;;5076152;28;19932;-79
2022/03/12 13:10:39;;;;;;;;;;;14.50;80.40;;;;;;5090363;28;20379;-79
2022/03/12 13:13:05;;;;;;;;;;;14.40;80.90;;;;;;5086541;28;20394;-79
2022/03/12 13:15:32;;;;;;;;;;;14.40;81.80;;;;;;5079388;28;20367;-79
2022/03/12 13:17:59;;;;;;;;;;;14.40;83.60;;;;;;5075693;28;19924;-78
2022/03/12 13:20:25;;;;;;;;;;;14.40;82.60;;;;;;5086086;28;19924;-79
2022/03/12 13:22:52;;;;;;;;;;;14.50;81.40;;;;;;5089260;28;20371;-79
2022/03/12 13:25:18;;;;;;;;;;;14.40;82.20;;;;;;5086347;28;19932;-79
2022/03/12 13:27:45;;;;;;;;;;;14.30;82.50;;;;;;5084953;28;19931;-80
2022/03/12 13:30:16;;;;;;;;;;;14.20;82.40;;;;;;5082864;28;19936;-81
2022/03/12 13:32:42;;;;;;;;;;;14.20;83.40;;;;;;5082623;28;19924;-78
2022/03/12 13:35:09;;;;;;;;;;;14.10;83.10;;;;;;5087367;28;19924;-78
2022/03/12 13:37:35;;;;;;;;;;;14.00;82.90;;;;;;5087554;28;19931;-79
2022/03/12 13:40:02;;;;;;;;;;;14.00;83.10;;;;;;5090092;28;19924;-77
2022/03/12 13:42:29;;;;;;;;;;;13.90;83.80;;;;;;5088157;28;19978;-79
2022/03/12 13:44:55;;;;;;;;;;;13.80;84.20;;;;;;5085928;28;19924;-78
2022/03/12 13:47:23;;;;;;;;;;;13.70;84.90;;;;;;5084471;28;19968;-79
2022/03/12 13:49:50;;;;;;;;;;;13.70;84.80;;;;;;5080668;28;20317;-79
2022/03/12 13:52:17;;;;;;;;;;;13.70;84.70;;;;;;5075673;28;19925;-83
2022/03/12 13:54:44;;;;;;;;;;;13.60;86.10;;;;;;5078053;28;19927;-80
2022/03/12 13:57:10;;;;;;;;;;;13.60;85.60;;;;;;5076079;28;19925;-80
2022/03/12 13:59:37;;;;;;;;;;;13.60;86.50;;;;;;5102147;28;19928;-80
2022/03/12 14:02:04;;;;;;;;;;;13.50;87.40;;;;;;5083181;28;19931;-80
2022/03/12 14:04:30;;;;;;;;;;;13.60;87.30;;;;;;5083511;28;20425;-79
2022/03/12 14:06:58;;;;;;;;;;;13.60;86.20;;;;;;5087445;28;20363;-80
2022/03/12 14:09:26;;;;;;;;;;;13.60;87.40;;;;;;5075653;28;19929;-80
2022/03/12 14:11:56;;;;;;;;;;;13.60;87.30;;;;;;5089034;28;19932;-80
2022/03/12 14:14:23;;;;;;;;;;;13.70;86.80;;;;;;5075269;28;19928;-79
2022/03/12 14:16:53;;;;;;;;;;;13.70;88.80;;;;;;5088147;28;19924;-80
2022/03/12 14:19:20;;;;;;;;;;;13.80;87.00;;;;;;5085966;28;20286;-79
2022/03/12 14:21:48;;;;;;;;;;;13.80;86.70;;;;;;5084711;28;19929;-79
2022/03/12 14:24:15;;;;;;;;;;;13.80;88.00;;;;;;5080839;28;19929;-79